createdAt,value
2022-08-26T00:01:30.201Z,100595.25
2022-08-26T00:04:16.488Z,100606.97
2022-08-26T00:07:01.817Z,100605.41
2022-08-26T00:09:47.389Z,100606.44
2022-08-26T00:12:36.145Z,100601.41
2022-08-26T00:15:23.340Z,100609.53
2022-08-26T00:18:16.752Z,100595.72
2022-08-26T00:21:08.771Z,100596.78
2022-08-26T00:23:54.181Z,100617.16
2022-08-26T00:26:39.646Z,100607.72
2022-08-26T00:29:26.636Z,100606.97
2022-08-26T00:32:11.546Z,100604.44
2022-08-26T00:34:56.410Z,100601.00
2022-08-26T00:37:42.587Z,100608.19
2022-08-26T00:40:42.923Z,100601.19
2022-08-26T00:43:32.233Z,100590.88
2022-08-26T00:46:34.982Z,100596.25
2022-08-26T00:49:41.321Z,100610.38
2022-08-26T00:52:27.445Z,100603.44
2022-08-26T00:55:26.620Z,100605.28
2022-08-26T00:58:26.633Z,100610.66
2022-08-26T01:01:12.307Z,100607.28
2022-08-26T01:03:59.076Z,100612.66
2022-08-26T01:06:46.442Z,100616.22
2022-08-26T01:09:32.107Z,100612.75
2022-08-26T01:12:21.950Z,100614.56
2022-08-26T01:15:10.060Z,100608.56
2022-08-26T01:17:55.115Z,100609.56
2022-08-26T01:21:13.793Z,100621.00
2022-08-26T01:23:59.578Z,100603.22
2022-08-26T01:26:45.017Z,100616.59
2022-08-26T01:29:33.698Z,100617.81
2022-08-26T01:32:22.020Z,100605.78
2022-08-26T01:35:08.695Z,100600.56
2022-08-26T01:37:55.827Z,100610.25
2022-08-26T01:40:42.150Z,100612.88
2022-08-26T01:43:31.319Z,100605.66
2022-08-26T01:46:18.537Z,100610.31
2022-08-26T01:49:06.688Z,100612.34
2022-08-26T01:51:54.912Z,100615.09
2022-08-26T01:54:40.384Z,100611.69
2022-08-26T01:57:26.131Z,100610.88
2022-08-26T02:00:12.788Z,100619.78
2022-08-26T02:03:02.691Z,100616.28
2022-08-26T02:05:56.004Z,100608.13
2022-08-26T02:08:45.181Z,100610.00
2022-08-26T02:11:30.093Z,100590.03
2022-08-26T02:14:27.882Z,100593.66
2022-08-26T02:17:13.121Z,100592.06
2022-08-26T02:19:58.587Z,100605.16
2022-08-26T02:22:45.151Z,100607.78
2022-08-26T02:25:52.419Z,100606.13
2022-08-26T02:28:44.892Z,100606.97
2022-08-26T02:31:30.085Z,100614.88
2022-08-26T02:34:20.319Z,100607.91
2022-08-26T02:37:09.585Z,100604.59
2022-08-26T02:39:54.699Z,100594.16
2022-08-26T02:42:39.808Z,100596.81
2022-08-26T02:45:26.063Z,100607.38
2022-08-26T02:48:18.829Z,100594.38
2022-08-26T02:51:04.069Z,100588.38
2022-08-26T02:53:49.817Z,100588.44
2022-08-26T02:56:36.528Z,100604.16
2022-08-26T02:59:24.357Z,100598.03
2022-08-26T03:02:10.007Z,100600.59
2022-08-26T03:04:57.991Z,100604.22
2022-08-26T03:07:48.032Z,100589.34
2022-08-26T03:10:32.979Z,100588.91
2022-08-26T03:13:18.462Z,100597.06
2022-08-26T03:16:04.527Z,100593.81
2022-08-26T03:18:52.413Z,100601.31
2022-08-26T03:21:39.422Z,100606.09
2022-08-26T03:24:24.924Z,100609.59
2022-08-26T03:27:10.204Z,100601.75
2022-08-26T03:29:55.708Z,100602.53
2022-08-26T03:32:41.478Z,100596.47
2022-08-26T03:35:27.033Z,100605.97
2022-08-26T03:38:12.373Z,100590.13
2022-08-26T03:40:57.476Z,100591.00
2022-08-26T03:43:42.892Z,100593.66
2022-08-26T03:46:28.620Z,100592.84
2022-08-26T03:49:13.853Z,100592.22
2022-08-26T03:52:00.385Z,100576.66
2022-08-26T03:54:45.595Z,100591.63
2022-08-26T03:57:32.637Z,100582.03
2022-08-26T04:00:18.479Z,100580.44
2022-08-26T04:03:04.069Z,100591.81
2022-08-26T04:05:51.867Z,100580.44
2022-08-26T04:08:38.098Z,100592.91
2022-08-26T04:11:26.809Z,100585.25
2022-08-26T04:14:17.523Z,100584.34
2022-08-26T04:17:05.781Z,100593.13
2022-08-26T04:19:53.050Z,100587.06
2022-08-26T04:22:38.393Z,100588.00
2022-08-26T04:25:24.208Z,100582.00
2022-08-26T04:28:09.940Z,100582.06
2022-08-26T04:30:55.470Z,100577.69
2022-08-26T04:33:41.683Z,100588.06
2022-08-26T04:36:26.943Z,100584.50
2022-08-26T04:39:13.830Z,100596.72
2022-08-26T04:41:59.689Z,100588.91
2022-08-26T04:44:47.075Z,100588.97
2022-08-26T04:47:32.570Z,100585.44
2022-08-26T04:50:18.377Z,100593.38
2022-08-26T04:53:07.173Z,100590.00
2022-08-26T04:55:55.261Z,100601.44
2022-08-26T04:58:40.450Z,100595.28
2022-08-26T05:01:27.373Z,100603.97
2022-08-26T05:04:12.847Z,100602.13
2022-08-26T05:07:02.805Z,100608.47
2022-08-26T05:09:47.954Z,100603.44
2022-08-26T05:12:33.785Z,100609.63
2022-08-26T05:15:19.162Z,100610.56
2022-08-26T05:18:06.814Z,100622.03
2022-08-26T05:20:54.733Z,100606.22
2022-08-26T05:23:39.997Z,100619.28
2022-08-26T05:26:28.716Z,100613.88
2022-08-26T05:29:13.967Z,100612.09
2022-08-26T05:31:59.269Z,100608.72
2022-08-26T05:34:44.229Z,100613.97
2022-08-26T05:37:31.269Z,100615.66
2022-08-26T05:40:16.801Z,100617.34
2022-08-26T05:43:04.591Z,100614.63
2022-08-26T05:45:50.394Z,100627.59
2022-08-26T05:48:36.401Z,100634.53
2022-08-26T05:51:25.419Z,100627.53
2022-08-26T05:54:12.652Z,100630.03
2022-08-26T05:56:57.738Z,100628.22
2022-08-26T05:59:43.060Z,100629.81
2022-08-26T06:02:28.451Z,100635.75
2022-08-26T06:05:13.959Z,100636.63
2022-08-26T06:07:59.309Z,100638.91
2022-08-26T06:10:53.939Z,100634.22
2022-08-26T06:13:39.984Z,100637.50
2022-08-26T06:16:25.628Z,100641.75
2022-08-26T06:19:13.497Z,100628.47
2022-08-26T06:21:58.954Z,100637.09
2022-08-26T06:24:44.355Z,100631.75
2022-08-26T06:27:32.806Z,100636.06
2022-08-26T06:30:18.128Z,100628.09
2022-08-26T06:33:04.203Z,100635.78
2022-08-26T06:35:50.919Z,100629.59
2022-08-26T06:38:36.494Z,100635.69
2022-08-26T06:41:22.957Z,100631.09
2022-08-26T06:44:07.840Z,100634.59
2022-08-26T06:46:52.956Z,100636.34
2022-08-26T06:49:39.832Z,100644.34
2022-08-26T06:52:24.874Z,100645.22
2022-08-26T06:55:09.971Z,100651.31
2022-08-26T06:57:56.268Z,100658.28
2022-08-26T07:00:41.719Z,100659.59
2022-08-26T07:03:32.768Z,100661.25
2022-08-26T07:06:26.191Z,100650.31
2022-08-26T07:09:11.596Z,100647.19
2022-08-26T07:11:56.918Z,100638.94
2022-08-26T07:14:47.264Z,100636.84
2022-08-26T07:17:33.548Z,100630.97
2022-08-26T07:20:19.400Z,100627.13
2022-08-26T07:23:04.893Z,100643.13
2022-08-26T07:25:55.520Z,100643.22
2022-08-26T07:28:40.741Z,100644.31
2022-08-26T07:31:35.983Z,100650.69
2022-08-26T07:34:24.659Z,100646.91
2022-08-26T07:37:11.977Z,100649.03
2022-08-26T07:39:57.148Z,100653.44
2022-08-26T07:42:42.445Z,100638.38
2022-08-26T07:45:28.007Z,100636.34
2022-08-26T07:48:13.430Z,100650.97
2022-08-26T07:50:59.336Z,100650.19
2022-08-26T07:53:48.033Z,100647.63
2022-08-26T07:56:37.717Z,100634.00
2022-08-26T07:59:23.267Z,100620.72
2022-08-26T08:02:08.454Z,100633.63
2022-08-26T08:04:56.969Z,100592.69
2022-08-26T08:07:45.344Z,100600.56
2022-08-26T08:10:31.779Z,100598.53
2022-08-26T08:13:17.082Z,100607.63
2022-08-26T08:16:04.417Z,100640.41
2022-08-26T08:18:49.320Z,100645.88
2022-08-26T08:21:35.162Z,100642.78
2022-08-26T08:24:20.067Z,100642.41
2022-08-26T08:27:05.629Z,100649.22
2022-08-26T08:29:52.278Z,100651.13
2022-08-26T08:32:37.984Z,100628.97
2022-08-26T08:35:23.895Z,100660.00
2022-08-26T08:38:09.171Z,100650.00
2022-08-26T08:40:56.033Z,100649.16
2022-08-26T08:43:44.754Z,100636.91
2022-08-26T08:46:30.285Z,100632.53
2022-08-26T08:49:16.922Z,100640.81
2022-08-26T08:52:29.350Z,100660.75
2022-08-26T08:55:18.207Z,100655.03
2022-08-26T08:58:08.140Z,100650.28
2022-08-26T09:01:08.424Z,100650.25
2022-08-26T09:04:01.174Z,100648.06
2022-08-26T09:06:48.624Z,100653.47
2022-08-26T09:10:20.507Z,100661.72
2022-08-26T09:13:09.688Z,100643.22
2022-08-26T09:15:58.815Z,100647.91
2022-08-26T09:18:53.499Z,100649.84
2022-08-26T09:21:38.843Z,100632.09
2022-08-26T09:24:28.554Z,100633.06
2022-08-26T09:27:44.979Z,100628.94
2022-08-26T09:30:33.195Z,100628.38
2022-08-26T09:33:18.503Z,100644.66
2022-08-26T09:36:39.220Z,100653.22
2022-08-26T09:39:28.929Z,100658.47
2022-08-26T09:42:23.108Z,100657.44
2022-08-26T09:45:08.154Z,100682.34
2022-08-26T09:47:56.862Z,100665.16
2022-08-26T09:50:57.737Z,100668.66
2022-08-26T09:53:52.315Z,100664.63
2022-08-26T09:56:39.185Z,100680.81
2022-08-26T09:59:30.974Z,100687.19
2022-08-26T10:02:31.267Z,100697.19
2022-08-26T10:05:28.137Z,100692.13
2022-08-26T10:08:20.864Z,100699.41
2022-08-26T10:11:26.113Z,100693.34
2022-08-26T10:14:29.745Z,100678.56
2022-08-26T10:17:35.231Z,100667.06
2022-08-26T10:20:28.144Z,100665.66
2022-08-26T10:23:18.415Z,100661.38
2022-08-26T10:26:15.945Z,100671.78
2022-08-26T10:29:43.013Z,100653.63
2022-08-26T10:32:56.441Z,100638.75
2022-08-26T10:35:52.091Z,100660.13
2022-08-26T10:38:39.385Z,100647.31
2022-08-26T10:41:31.362Z,100660.97
2022-08-26T10:44:17.922Z,100653.00
2022-08-26T10:47:12.605Z,100644.56
2022-08-26T10:50:02.983Z,100639.16
2022-08-26T10:53:11.334Z,100659.47
2022-08-26T10:56:05.659Z,100641.31
2022-08-26T10:59:04.524Z,100634.81
2022-08-26T11:01:58.430Z,100633.09
2022-08-26T11:04:57.350Z,100646.56
2022-08-26T11:07:48.071Z,100663.38
2022-08-26T11:10:55.406Z,100638.09
2022-08-26T11:13:56.307Z,100656.44
2022-08-26T11:16:43.979Z,100638.88
2022-08-26T11:19:59.560Z,100644.91
2022-08-26T11:22:47.542Z,100650.06
2022-08-26T11:25:33.256Z,100662.22
2022-08-26T11:28:34.847Z,100640.72
2022-08-26T11:31:20.203Z,100627.38
2022-08-26T11:34:13.487Z,100631.75
2022-08-26T11:37:00.367Z,100628.16
2022-08-26T11:39:55.557Z,100630.84
2022-08-26T11:42:46.576Z,100617.41
2022-08-26T11:45:41.339Z,100624.59
2022-08-26T11:48:32.368Z,100629.31
2022-08-26T11:51:18.610Z,100624.03
2022-08-26T11:54:16.389Z,100627.38
2022-08-26T11:57:09.248Z,100623.28
2022-08-26T11:59:57.486Z,100604.00
2022-08-26T12:02:42.871Z,100597.72
2022-08-26T12:05:36.795Z,100614.03
2022-08-26T12:08:27.977Z,100610.25
2022-08-26T12:11:24.982Z,100584.50
2022-08-26T12:14:21.603Z,100553.81
2022-08-26T12:17:12.772Z,100554.75
2022-08-26T12:19:58.074Z,100568.31
2022-08-26T12:22:48.192Z,100535.84
2022-08-26T12:25:36.209Z,100520.88
2022-08-26T12:28:23.194Z,100511.06
2022-08-26T12:31:08.643Z,100534.53
2022-08-26T12:33:56.677Z,100504.31
2022-08-26T12:36:51.975Z,100523.47
2022-08-26T12:39:40.740Z,100509.75
2022-08-26T12:42:43.233Z,100513.53
2022-08-26T12:45:30.838Z,100520.44
2022-08-26T12:48:25.504Z,100525.59
2022-08-26T12:51:32.590Z,100533.78
2022-08-26T12:54:19.793Z,100526.63
2022-08-26T12:57:12.497Z,100515.53
2022-08-26T13:00:34.530Z,100512.13
2022-08-26T13:03:35.133Z,100508.06
2022-08-26T13:06:20.494Z,100494.53
2022-08-26T13:09:08.581Z,100496.56
2022-08-26T13:11:53.332Z,100483.03
2022-08-26T13:14:38.416Z,100503.91
2022-08-26T13:17:23.358Z,100511.84
2022-08-26T13:20:08.543Z,100505.78
2022-08-26T13:22:58.785Z,100515.41
2022-08-26T13:25:43.897Z,100501.09
2022-08-26T13:28:29.161Z,100518.41
2022-08-26T13:31:15.822Z,100514.50
2022-08-26T13:34:03.358Z,100528.09
2022-08-26T13:36:50.469Z,100546.59
2022-08-26T13:39:35.621Z,100523.19
2022-08-26T13:42:21.791Z,100531.34
2022-08-26T13:45:07.524Z,100535.31
2022-08-26T13:47:52.701Z,100526.03
2022-08-26T13:50:37.504Z,100531.34
2022-08-26T13:53:23.237Z,100527.63
2022-08-26T13:56:11.088Z,100547.69
2022-08-26T13:59:00.445Z,100532.31
2022-08-26T14:01:46.057Z,100538.22
2022-08-26T14:04:31.535Z,100535.63
2022-08-26T14:07:16.785Z,100563.66
2022-08-26T14:10:02.683Z,100553.41
2022-08-26T14:12:47.968Z,100559.28
2022-08-26T14:15:37.710Z,100574.03
2022-08-26T14:18:28.380Z,100575.59
2022-08-26T14:21:14.055Z,100572.28
2022-08-26T14:24:01.034Z,100566.06
2022-08-26T14:26:46.485Z,100578.44
2022-08-26T14:29:31.956Z,100562.31
2022-08-26T14:32:28.392Z,100556.25
2022-08-26T14:35:17.228Z,100563.38
2022-08-26T14:38:02.272Z,100556.31
2022-08-26T14:40:47.663Z,100562.34
2022-08-26T14:43:33.404Z,100565.56
2022-08-26T14:46:18.845Z,100563.69
2022-08-26T14:49:07.307Z,100562.22
2022-08-26T14:51:55.173Z,100568.38
2022-08-26T14:54:40.024Z,100568.06
2022-08-26T14:57:25.026Z,100548.63
2022-08-26T15:00:10.414Z,100560.50
2022-08-26T15:02:55.579Z,100566.63
2022-08-26T15:05:42.203Z,100556.50
2022-08-26T15:08:28.925Z,100552.09
2022-08-26T15:11:13.854Z,100540.81
2022-08-26T15:13:59.275Z,100547.19
2022-08-26T15:16:44.502Z,100545.16
2022-08-26T15:19:29.314Z,100552.25
2022-08-26T15:22:14.863Z,100545.16
2022-08-26T15:25:00.725Z,100557.94
2022-08-26T15:27:45.939Z,100562.31
2022-08-26T15:30:31.526Z,100561.53
2022-08-26T15:33:17.197Z,100562.22
2022-08-26T15:36:04.039Z,100566.28
2022-08-26T15:38:49.171Z,100563.06
2022-08-26T15:41:35.133Z,100580.53
2022-08-26T15:44:20.492Z,100582.34
2022-08-26T15:47:05.543Z,100582.13
2022-08-26T15:49:50.732Z,100574.22
2022-08-26T15:52:38.610Z,100579.38
2022-08-26T15:55:23.875Z,100593.72
2022-08-26T15:58:08.877Z,100596.00
2022-08-26T16:00:55.525Z,100589.78
2022-08-26T16:03:40.820Z,100604.69
2022-08-26T16:06:31.262Z,100602.19
2022-08-26T16:09:16.213Z,100607.75
2022-08-26T16:12:01.583Z,100606.38
2022-08-26T16:14:46.761Z,100608.94
2022-08-26T16:17:32.018Z,100611.72
2022-08-26T16:20:17.039Z,100610.31
2022-08-26T16:23:03.906Z,100609.38
2022-08-26T16:25:50.358Z,100610.81
2022-08-26T16:28:35.870Z,100610.31
2022-08-26T16:31:23.424Z,100615.75
2022-08-26T16:34:09.664Z,100625.31
2022-08-26T16:36:54.689Z,100637.66
2022-08-26T16:39:44.869Z,100636.16
2022-08-26T16:42:30.565Z,100638.88
2022-08-26T16:45:16.357Z,100655.78
2022-08-26T16:48:02.490Z,100643.34
2022-08-26T16:50:47.307Z,100646.28
2022-08-26T16:53:32.293Z,100629.88
2022-08-26T16:56:23.463Z,100640.81
2022-08-26T16:59:18.841Z,100635.63
2022-08-26T17:02:04.360Z,100627.56
2022-08-26T17:04:50.464Z,100619.63
2022-08-26T17:07:35.658Z,100613.53
2022-08-26T17:10:22.239Z,100603.75
2022-08-26T17:13:07.727Z,100604.66
2022-08-26T17:15:52.997Z,100594.72
2022-08-26T17:18:38.493Z,100596.25
2022-08-26T17:21:24.921Z,100597.38
2022-08-26T17:24:09.934Z,100597.47
2022-08-26T17:26:55.854Z,100592.88
2022-08-26T17:29:41.229Z,100592.88
2022-08-26T17:32:26.672Z,100584.38
2022-08-26T17:35:13.351Z,100582.75
2022-08-26T17:37:58.365Z,100588.34
2022-08-26T17:40:43.298Z,100585.16
2022-08-26T17:43:28.652Z,100584.63
2022-08-26T17:46:13.519Z,100598.78
2022-08-26T17:48:59.598Z,100618.34
2022-08-26T17:51:44.598Z,100622.44
2022-08-26T17:54:30.181Z,100619.09
2022-08-26T17:57:16.640Z,100618.16
2022-08-26T18:00:11.274Z,100616.81
2022-08-26T18:02:56.796Z,100636.44
2022-08-26T18:05:42.410Z,100643.94
2022-08-26T18:08:27.394Z,100641.63
2022-08-26T18:11:18.997Z,100652.75
2022-08-26T18:14:04.476Z,100651.44
2022-08-26T18:16:49.387Z,100656.13
2022-08-26T18:19:34.979Z,100666.91
2022-08-26T18:22:20.722Z,100658.22
2022-08-26T18:25:08.133Z,100673.09
2022-08-26T18:27:53.639Z,100682.22
2022-08-26T18:30:42.181Z,100698.31
2022-08-26T18:33:27.234Z,100710.84
2022-08-26T18:36:25.192Z,100702.25
2022-08-26T18:39:11.832Z,100701.91
2022-08-26T18:41:57.278Z,100698.25
2022-08-26T18:44:42.764Z,100705.94
2022-08-26T18:47:28.301Z,100699.81
2022-08-26T18:50:14.120Z,100703.19
2022-08-26T18:52:59.253Z,100707.41
2022-08-26T18:55:44.648Z,100713.41
2022-08-26T18:58:29.499Z,100705.28
2022-08-26T19:01:16.879Z,100710.31
2022-08-26T19:04:03.925Z,100710.56
2022-08-26T19:06:50.826Z,100717.97
2022-08-26T19:09:36.128Z,100723.13
2022-08-26T19:12:21.838Z,100713.63
2022-08-26T19:15:07.338Z,100718.97
2022-08-26T19:17:52.530Z,100713.13
2022-08-26T19:20:43.471Z,100722.81
2022-08-26T19:23:32.435Z,100724.09
2022-08-26T19:26:17.953Z,100722.31
2022-08-26T19:29:03.389Z,100727.78
2022-08-26T19:31:48.724Z,100723.16
2022-08-26T19:34:34.028Z,100728.59
2022-08-26T19:37:20.427Z,100731.25
2022-08-26T19:40:05.974Z,100734.06
2022-08-26T19:42:51.644Z,100726.38
2022-08-26T19:45:37.334Z,100731.91
2022-08-26T19:48:22.795Z,100736.06
2022-08-26T19:51:08.101Z,100731.00
2022-08-26T19:53:55.547Z,100739.34
2022-08-26T19:56:40.686Z,100739.38
2022-08-26T19:59:26.272Z,100740.34
2022-08-26T20:02:11.792Z,100745.63
2022-08-26T20:04:57.061Z,100750.78
2022-08-26T20:07:43.133Z,100750.94
2022-08-26T20:10:28.312Z,100743.78
2022-08-26T20:13:13.573Z,100747.19
2022-08-26T20:15:58.530Z,100737.06
2022-08-26T20:18:45.017Z,100742.56
2022-08-26T20:21:32.631Z,100745.28
2022-08-26T20:24:19.236Z,100743.50
2022-08-26T20:27:07.685Z,100736.97
2022-08-26T20:29:57.220Z,100749.59
2022-08-26T20:32:43.011Z,100749.91
2022-08-26T20:35:28.188Z,100753.22
2022-08-26T20:38:13.599Z,100753.06
2022-08-26T20:40:59.026Z,100765.53
2022-08-26T20:43:45.211Z,100769.06
2022-08-26T20:46:30.313Z,100772.00
2022-08-26T20:49:16.088Z,100774.69
2022-08-26T20:52:03.073Z,100777.31
2022-08-26T20:54:47.941Z,100781.75
2022-08-26T20:57:32.818Z,100781.22
2022-08-26T21:00:18.614Z,100774.94
2022-08-26T21:03:06.913Z,100790.44
2022-08-26T21:05:52.263Z,100780.56
2022-08-26T21:08:40.870Z,100787.66
2022-08-26T21:11:28.697Z,100783.03
2022-08-26T21:14:16.167Z,100780.22
2022-08-26T21:17:02.255Z,100776.00
2022-08-26T21:19:47.416Z,100776.97
2022-08-26T21:22:32.971Z,100780.25
2022-08-26T21:25:18.619Z,100789.97
2022-08-26T21:28:04.258Z,100776.84
2022-08-26T21:30:49.336Z,100777.63
2022-08-26T21:33:35.236Z,100778.56
2022-08-26T21:36:20.252Z,100788.00
2022-08-26T21:39:10.733Z,100781.63
2022-08-26T21:41:56.424Z,100787.66
2022-08-26T21:44:41.905Z,100793.84
2022-08-26T21:47:27.522Z,100798.19
2022-08-26T21:50:13.039Z,100798.91
2022-08-26T21:52:58.112Z,100789.19
2022-08-26T21:55:43.518Z,100788.19
2022-08-26T21:58:28.417Z,100786.50
2022-08-26T22:01:17.722Z,100793.69
2022-08-26T22:04:05.266Z,100787.81
2022-08-26T22:06:53.324Z,100785.31
2022-08-26T22:09:38.748Z,100791.69
2022-08-26T22:12:24.336Z,100793.59
2022-08-26T22:15:10.101Z,100794.44
2022-08-26T22:17:55.157Z,100793.41
2022-08-26T22:20:40.531Z,100800.28
2022-08-26T22:23:26.150Z,100801.22
2022-08-26T22:26:13.517Z,100800.44
2022-08-26T22:29:00.113Z,100798.53
2022-08-26T22:31:46.050Z,100796.09
2022-08-26T22:34:31.164Z,100791.97
2022-08-26T22:37:16.124Z,100796.47
2022-08-26T22:40:01.034Z,100793.06
2022-08-26T22:42:55.722Z,100790.56
2022-08-26T22:45:47.903Z,100793.22
2022-08-26T22:48:33.061Z,100793.19
2022-08-26T22:51:18.679Z,100787.09
2022-08-26T22:54:04.875Z,100795.84
2022-08-26T22:56:50.238Z,100792.34
2022-08-26T22:59:35.512Z,100774.75
2022-08-26T23:02:20.915Z,100778.22
2022-08-26T23:05:07.392Z,100785.09
2022-08-26T23:07:52.722Z,100802.53
2022-08-26T23:10:40.753Z,100796.47
2022-08-26T23:13:25.820Z,100796.84
2022-08-26T23:16:12.635Z,100799.50
2022-08-26T23:18:57.803Z,100801.59
2022-08-26T23:21:43.517Z,100792.81
2022-08-26T23:24:28.332Z,100797.28
2022-08-26T23:27:13.649Z,100792.09
2022-08-26T23:29:59.030Z,100794.69
2022-08-26T23:32:43.976Z,100786.84
2022-08-26T23:35:29.587Z,100786.91
2022-08-26T23:38:14.863Z,100788.84
2022-08-26T23:40:59.981Z,100784.59
2022-08-26T23:43:45.497Z,100791.56
2022-08-26T23:46:35.066Z,100790.56
2022-08-26T23:49:20.399Z,100779.06
2022-08-26T23:52:06.476Z,100776.44
2022-08-26T23:54:52.354Z,100775.44
2022-08-26T23:57:38.063Z,100772.72
